sensor_id;sensor_type;location;lat;lon;timestamp;P1;durP1;ratioP1;P2;durP2;ratioP2
20491;SDS011;10404;51.468;6.762;2023-10-31T00:00:13;4.03;;;3.08;;
20491;SDS011;10404;51.468;6.762;2023-10-31T00:02:38;4.07;;;3.60;;
20491;SDS011;10404;51.468;6.762;2023-10-31T00:05:04;3.38;;;2.85;;
20491;SDS011;10404;51.468;6.762;2023-10-31T00:07:30;3.53;;;3.00;;
20491;SDS011;10404;51.468;6.762;2023-10-31T00:09:55;2.85;;;2.30;;
20491;SDS011;10404;51.468;6.762;2023-10-31T00:12:21;2.88;;;2.47;;
20491;SDS011;10404;51.468;6.762;2023-10-31T00:14:46;3.05;;;2.05;;
20491;SDS011;10404;51.468;6.762;2023-10-31T00:17:12;2.58;;;1.88;;
20491;SDS011;10404;51.468;6.762;2023-10-31T00:19:37;2.88;;;2.58;;
20491;SDS011;10404;51.468;6.762;2023-10-31T00:22:03;2.30;;;1.80;;
20491;SDS011;10404;51.468;6.762;2023-10-31T00:24:29;2.88;;;2.30;;
20491;SDS011;10404;51.468;6.762;2023-10-31T00:26:56;2.20;;;1.88;;
20491;SDS011;10404;51.468;6.762;2023-10-31T00:29:22;2.40;;;1.85;;
20491;SDS011;10404;51.468;6.762;2023-10-31T00:31:48;2.10;;;1.70;;
20491;SDS011;10404;51.468;6.762;2023-10-31T00:34:14;1.70;;;1.60;;
20491;SDS011;10404;51.468;6.762;2023-10-31T00:36:39;2.13;;;1.90;;
20491;SDS011;10404;51.468;6.762;2023-10-31T00:39:05;1.73;;;1.23;;
20491;SDS011;10404;51.468;6.762;2023-10-31T00:41:31;2.45;;;2.25;;
20491;SDS011;10404;51.468;6.762;2023-10-31T00:43:56;2.60;;;1.70;;
20491;SDS011;10404;51.468;6.762;2023-10-31T00:46:22;2.03;;;1.63;;
20491;SDS011;10404;51.468;6.762;2023-10-31T00:48:47;2.25;;;1.70;;
20491;SDS011;10404;51.468;6.762;2023-10-31T00:51:13;1.95;;;1.65;;
20491;SDS011;10404;51.468;6.762;2023-10-31T00:53:39;2.78;;;2.58;;
20491;SDS011;10404;51.468;6.762;2023-10-31T00:56:04;1.95;;;1.45;;
20491;SDS011;10404;51.468;6.762;2023-10-31T00:58:30;2.05;;;1.85;;
20491;SDS011;10404;51.468;6.762;2023-10-31T01:00:56;1.85;;;1.60;;
20491;SDS011;10404;51.468;6.762;2023-10-31T01:03:21;1.85;;;1.50;;
20491;SDS011;10404;51.468;6.762;2023-10-31T01:05:47;1.80;;;1.60;;
20491;SDS011;10404;51.468;6.762;2023-10-31T01:08:12;1.67;;;1.35;;
20491;SDS011;10404;51.468;6.762;2023-10-31T01:10:38;2.35;;;2.15;;
20491;SDS011;10404;51.468;6.762;2023-10-31T01:13:03;1.77;;;1.40;;
20491;SDS011;10404;51.468;6.762;2023-10-31T01:15:29;1.95;;;1.85;;
20491;SDS011;10404;51.468;6.762;2023-10-31T01:17:54;1.55;;;1.45;;
20491;SDS011;10404;51.468;6.762;2023-10-31T01:20:20;1.58;;;1.15;;
20491;SDS011;10404;51.468;6.762;2023-10-31T01:22:48;2.33;;;1.80;;
20491;SDS011;10404;51.468;6.762;2023-10-31T01:25:14;1.55;;;1.45;;
20491;SDS011;10404;51.468;6.762;2023-10-31T01:27:39;2.15;;;1.63;;
20491;SDS011;10404;51.468;6.762;2023-10-31T01:30:07;1.63;;;1.40;;
20491;SDS011;10404;51.468;6.762;2023-10-31T01:32:33;2.85;;;2.50;;
20491;SDS011;10404;51.468;6.762;2023-10-31T01:34:58;1.65;;;1.40;;
20491;SDS011;10404;51.468;6.762;2023-10-31T01:37:24;2.45;;;1.52;;
20491;SDS011;10404;51.468;6.762;2023-10-31T01:39:50;2.47;;;1.80;;
20491;SDS011;10404;51.468;6.762;2023-10-31T01:42:16;2.63;;;2.15;;
20491;SDS011;10404;51.468;6.762;2023-10-31T01:44:42;3.53;;;2.50;;
20491;SDS011;10404;51.468;6.762;2023-10-31T01:47:07;3.47;;;2.30;;
20491;SDS011;10404;51.468;6.762;2023-10-31T01:49:34;3.65;;;2.42;;
20491;SDS011;10404;51.468;6.762;2023-10-31T01:52:01;2.55;;;2.13;;
20491;SDS011;10404;51.468;6.762;2023-10-31T01:54:27;2.55;;;2.30;;
20491;SDS011;10404;51.468;6.762;2023-10-31T01:56:56;3.70;;;2.55;;
20491;SDS011;10404;51.468;6.762;2023-10-31T01:59:26;4.13;;;2.55;;
20491;SDS011;10404;51.468;6.762;2023-10-31T02:01:52;3.00;;;2.70;;
20491;SDS011;10404;51.468;6.762;2023-10-31T02:04:19;4.13;;;3.15;;
20491;SDS011;10404;51.468;6.762;2023-10-31T02:06:45;3.70;;;3.25;;
20491;SDS011;10404;51.468;6.762;2023-10-31T02:09:10;3.60;;;3.10;;
20491;SDS011;10404;51.468;6.762;2023-10-31T02:11:36;4.50;;;3.72;;
20491;SDS011;10404;51.468;6.762;2023-10-31T02:14:02;4.15;;;3.30;;
20491;SDS011;10404;51.468;6.762;2023-10-31T02:16:28;4.45;;;3.58;;
20491;SDS011;10404;51.468;6.762;2023-10-31T02:18:53;4.45;;;3.50;;
20491;SDS011;10404;51.468;6.762;2023-10-31T02:21:19;4.32;;;3.65;;
20491;SDS011;10404;51.468;6.762;2023-10-31T02:23:58;5.25;;;3.83;;
20491;SDS011;10404;51.468;6.762;2023-10-31T02:26:31;4.70;;;3.78;;
20491;SDS011;10404;51.468;6.762;2023-10-31T02:28:58;5.05;;;4.10;;
20491;SDS011;10404;51.468;6.762;2023-10-31T02:31:24;4.65;;;3.63;;
20491;SDS011;10404;51.468;6.762;2023-10-31T02:33:49;4.43;;;4.03;;
20491;SDS011;10404;51.468;6.762;2023-10-31T02:36:15;4.00;;;3.60;;
20491;SDS011;10404;51.468;6.762;2023-10-31T02:38:41;4.47;;;4.07;;
20491;SDS011;10404;51.468;6.762;2023-10-31T02:41:06;6.57;;;4.30;;
20491;SDS011;10404;51.468;6.762;2023-10-31T02:43:32;5.28;;;4.82;;
20491;SDS011;10404;51.468;6.762;2023-10-31T02:45:57;4.68;;;3.88;;
20491;SDS011;10404;51.468;6.762;2023-10-31T02:48:23;5.13;;;3.65;;
20491;SDS011;10404;51.468;6.762;2023-10-31T02:50:50;5.68;;;4.40;;
20491;SDS011;10404;51.468;6.762;2023-10-31T02:53:15;4.72;;;3.92;;
20491;SDS011;10404;51.468;6.762;2023-10-31T02:55:43;5.55;;;4.50;;
20491;SDS011;10404;51.468;6.762;2023-10-31T02:58:09;5.35;;;4.00;;
20491;SDS011;10404;51.468;6.762;2023-10-31T03:00:34;6.05;;;4.45;;
20491;SDS011;10404;51.468;6.762;2023-10-31T03:03:00;5.07;;;4.20;;
20491;SDS011;10404;51.468;6.762;2023-10-31T03:05:25;5.05;;;4.32;;
20491;SDS011;10404;51.468;6.762;2023-10-31T03:07:51;6.05;;;4.57;;
20491;SDS011;10404;51.468;6.762;2023-10-31T03:10:17;5.97;;;4.68;;
20491;SDS011;10404;51.468;6.762;2023-10-31T03:12:44;5.72;;;4.63;;
20491;SDS011;10404;51.468;6.762;2023-10-31T03:15:10;6.72;;;4.32;;
20491;SDS011;10404;51.468;6.762;2023-10-31T03:17:35;5.93;;;5.32;;
20491;SDS011;10404;51.468;6.762;2023-10-31T03:20:01;7.40;;;4.30;;
20491;SDS011;10404;51.468;6.762;2023-10-31T03:22:27;7.05;;;4.65;;
20491;SDS011;10404;51.468;6.762;2023-10-31T03:24:53;6.75;;;4.38;;
20491;SDS011;10404;51.468;6.762;2023-10-31T03:27:18;6.13;;;4.70;;
20491;SDS011;10404;51.468;6.762;2023-10-31T03:29:44;7.00;;;4.55;;
20491;SDS011;10404;51.468;6.762;2023-10-31T03:32:09;7.10;;;5.15;;
20491;SDS011;10404;51.468;6.762;2023-10-31T03:34:35;5.78;;;4.57;;
20491;SDS011;10404;51.468;6.762;2023-10-31T03:37:01;6.13;;;4.35;;
20491;SDS011;10404;51.468;6.762;2023-10-31T03:39:26;8.13;;;5.45;;
20491;SDS011;10404;51.468;6.762;2023-10-31T03:41:52;5.50;;;4.65;;
20491;SDS011;10404;51.468;6.762;2023-10-31T03:44:18;6.45;;;4.75;;
20491;SDS011;10404;51.468;6.762;2023-10-31T03:46:43;6.53;;;4.82;;
20491;SDS011;10404;51.468;6.762;2023-10-31T03:49:09;6.15;;;4.80;;
20491;SDS011;10404;51.468;6.762;2023-10-31T03:51:34;5.38;;;4.38;;
20491;SDS011;10404;51.468;6.762;2023-10-31T03:54:00;6.80;;;4.57;;
20491;SDS011;10404;51.468;6.762;2023-10-31T03:56:25;6.70;;;4.78;;
20491;SDS011;10404;51.468;6.762;2023-10-31T03:58:51;4.93;;;4.32;;
20491;SDS011;10404;51.468;6.762;2023-10-31T04:01:16;6.28;;;4.40;;
20491;SDS011;10404;51.468;6.762;2023-10-31T04:03:42;5.90;;;4.38;;
20491;SDS011;10404;51.468;6.762;2023-10-31T04:06:08;5.45;;;3.90;;
20491;SDS011;10404;51.468;6.762;2023-10-31T04:08:34;6.53;;;5.03;;
20491;SDS011;10404;51.468;6.762;2023-10-31T04:10:59;5.50;;;4.65;;
20491;SDS011;10404;51.468;6.762;2023-10-31T04:13:25;5.25;;;4.05;;
20491;SDS011;10404;51.468;6.762;2023-10-31T04:15:50;5.82;;;3.90;;
20491;SDS011;10404;51.468;6.762;2023-10-31T04:18:16;5.70;;;4.20;;
20491;SDS011;10404;51.468;6.762;2023-10-31T04:20:42;8.32;;;5.43;;
20491;SDS011;10404;51.468;6.762;2023-10-31T04:23:07;5.43;;;4.03;;
20491;SDS011;10404;51.468;6.762;2023-10-31T04:25:33;5.63;;;4.32;;
20491;SDS011;10404;51.468;6.762;2023-10-31T04:27:59;5.97;;;4.10;;
20491;SDS011;10404;51.468;6.762;2023-10-31T04:30:25;4.75;;;4.05;;
20491;SDS011;10404;51.468;6.762;2023-10-31T04:32:51;6.40;;;4.55;;
20491;SDS011;10404;51.468;6.762;2023-10-31T04:35:16;5.38;;;4.40;;
20491;SDS011;10404;51.468;6.762;2023-10-31T04:37:42;6.00;;;4.80;;
20491;SDS011;10404;51.468;6.762;2023-10-31T04:40:08;6.07;;;4.72;;
20491;SDS011;10404;51.468;6.762;2023-10-31T04:42:34;6.47;;;5.20;;
20491;SDS011;10404;51.468;6.762;2023-10-31T04:44:59;5.32;;;4.07;;
20491;SDS011;10404;51.468;6.762;2023-10-31T04:47:25;7.80;;;4.80;;
20491;SDS011;10404;51.468;6.762;2023-10-31T04:49:51;4.65;;;4.18;;
20491;SDS011;10404;51.468;6.762;2023-10-31T04:52:17;4.88;;;4.20;;
20491;SDS011;10404;51.468;6.762;2023-10-31T04:54:42;5.97;;;5.20;;
20491;SDS011;10404;51.468;6.762;2023-10-31T04:57:08;5.63;;;4.00;;
20491;SDS011;10404;51.468;6.762;2023-10-31T04:59:33;7.00;;;4.97;;
20491;SDS011;10404;51.468;6.762;2023-10-31T05:01:59;6.18;;;4.28;;
20491;SDS011;10404;51.468;6.762;2023-10-31T05:04:25;6.57;;;4.30;;
20491;SDS011;10404;51.468;6.762;2023-10-31T05:06:51;6.38;;;4.03;;
20491;SDS011;10404;51.468;6.762;2023-10-31T05:09:16;5.57;;;4.20;;
20491;SDS011;10404;51.468;6.762;2023-10-31T05:11:43;6.07;;;4.75;;
20491;SDS011;10404;51.468;6.762;2023-10-31T05:14:08;6.05;;;3.92;;
20491;SDS011;10404;51.468;6.762;2023-10-31T05:16:41;7.40;;;4.85;;
20491;SDS011;10404;51.468;6.762;2023-10-31T05:19:07;6.65;;;4.82;;
20491;SDS011;10404;51.468;6.762;2023-10-31T05:21:33;7.18;;;4.93;;
20491;SDS011;10404;51.468;6.762;2023-10-31T05:23:59;6.43;;;4.30;;
20491;SDS011;10404;51.468;6.762;2023-10-31T05:26:24;6.22;;;4.25;;
20491;SDS011;10404;51.468;6.762;2023-10-31T05:28:50;6.07;;;3.97;;
20491;SDS011;10404;51.468;6.762;2023-10-31T05:31:15;6.75;;;4.53;;
20491;SDS011;10404;51.468;6.762;2023-10-31T05:33:42;7.03;;;5.05;;
20491;SDS011;10404;51.468;6.762;2023-10-31T05:36:17;6.53;;;5.22;;
20491;SDS011;10404;51.468;6.762;2023-10-31T05:38:47;7.55;;;5.10;;
20491;SDS011;10404;51.468;6.762;2023-10-31T05:41:13;6.72;;;4.65;;
20491;SDS011;10404;51.468;6.762;2023-10-31T05:43:39;6.90;;;4.80;;
20491;SDS011;10404;51.468;6.762;2023-10-31T05:46:05;6.35;;;4.63;;
20491;SDS011;10404;51.468;6.762;2023-10-31T05:48:31;7.57;;;5.15;;
20491;SDS011;10404;51.468;6.762;2023-10-31T05:50:57;8.10;;;5.50;;
20491;SDS011;10404;51.468;6.762;2023-10-31T05:53:22;6.93;;;5.13;;
20491;SDS011;10404;51.468;6.762;2023-10-31T05:55:48;6.80;;;5.07;;
20491;SDS011;10404;51.468;6.762;2023-10-31T05:58:14;7.25;;;4.85;;
20491;SDS011;10404;51.468;6.762;2023-10-31T06:00:39;8.63;;;5.97;;
20491;SDS011;10404;51.468;6.762;2023-10-31T06:03:05;8.02;;;4.78;;
20491;SDS011;10404;51.468;6.762;2023-10-31T06:05:31;7.07;;;5.38;;
20491;SDS011;10404;51.468;6.762;2023-10-31T06:07:56;7.00;;;5.18;;
20491;SDS011;10404;51.468;6.762;2023-10-31T06:10:22;6.22;;;4.97;;
20491;SDS011;10404;51.468;6.762;2023-10-31T06:12:47;7.82;;;5.70;;
20491;SDS011;10404;51.468;6.762;2023-10-31T06:15:13;8.85;;;5.25;;
20491;SDS011;10404;51.468;6.762;2023-10-31T06:17:39;7.07;;;5.90;;
20491;SDS011;10404;51.468;6.762;2023-10-31T06:20:06;8.30;;;5.30;;
20491;SDS011;10404;51.468;6.762;2023-10-31T06:22:32;8.18;;;6.05;;
20491;SDS011;10404;51.468;6.762;2023-10-31T06:24:58;7.35;;;5.57;;
20491;SDS011;10404;51.468;6.762;2023-10-31T06:27:24;8.75;;;5.68;;
20491;SDS011;10404;51.468;6.762;2023-10-31T06:29:49;8.05;;;5.22;;
20491;SDS011;10404;51.468;6.762;2023-10-31T06:32:15;7.55;;;5.32;;
20491;SDS011;10404;51.468;6.762;2023-10-31T06:34:40;7.95;;;6.25;;
20491;SDS011;10404;51.468;6.762;2023-10-31T06:37:06;7.55;;;5.93;;
20491;SDS011;10404;51.468;6.762;2023-10-31T06:39:31;7.78;;;5.65;;
20491;SDS011;10404;51.468;6.762;2023-10-31T06:41:57;7.45;;;5.82;;
20491;SDS011;10404;51.468;6.762;2023-10-31T06:44:23;7.28;;;5.43;;
20491;SDS011;10404;51.468;6.762;2023-10-31T06:46:48;8.18;;;5.45;;
20491;SDS011;10404;51.468;6.762;2023-10-31T06:49:14;7.35;;;5.65;;
20491;SDS011;10404;51.468;6.762;2023-10-31T06:51:40;8.10;;;6.28;;
20491;SDS011;10404;51.468;6.762;2023-10-31T06:54:06;7.57;;;5.18;;
20491;SDS011;10404;51.468;6.762;2023-10-31T06:56:31;7.15;;;6.07;;
20491;SDS011;10404;51.468;6.762;2023-10-31T06:58:57;7.20;;;5.30;;
20491;SDS011;10404;51.468;6.762;2023-10-31T07:01:22;6.88;;;5.63;;
20491;SDS011;10404;51.468;6.762;2023-10-31T07:03:48;8.45;;;5.50;;
20491;SDS011;10404;51.468;6.762;2023-10-31T07:06:14;6.95;;;5.25;;
20491;SDS011;10404;51.468;6.762;2023-10-31T07:08:39;7.30;;;5.82;;
20491;SDS011;10404;51.468;6.762;2023-10-31T07:11:05;5.57;;;4.57;;
20491;SDS011;10404;51.468;6.762;2023-10-31T07:13:30;7.18;;;6.30;;
20491;SDS011;10404;51.468;6.762;2023-10-31T07:15:56;5.32;;;4.80;;
20491;SDS011;10404;51.468;6.762;2023-10-31T07:18:21;6.90;;;5.30;;
20491;SDS011;10404;51.468;6.762;2023-10-31T07:20:47;8.07;;;6.15;;
20491;SDS011;10404;51.468;6.762;2023-10-31T07:23:12;6.00;;;5.00;;
20491;SDS011;10404;51.468;6.762;2023-10-31T07:25:38;6.68;;;5.40;;
20491;SDS011;10404;51.468;6.762;2023-10-31T07:28:04;6.32;;;4.70;;
20491;SDS011;10404;51.468;6.762;2023-10-31T07:30:29;6.75;;;5.72;;
20491;SDS011;10404;51.468;6.762;2023-10-31T07:32:55;7.53;;;5.05;;
20491;SDS011;10404;51.468;6.762;2023-10-31T07:35:21;7.78;;;4.90;;
20491;SDS011;10404;51.468;6.762;2023-10-31T07:37:46;7.68;;;5.97;;
20491;SDS011;10404;51.468;6.762;2023-10-31T07:40:12;7.53;;;5.55;;
20491;SDS011;10404;51.468;6.762;2023-10-31T07:42:38;7.05;;;6.20;;
20491;SDS011;10404;51.468;6.762;2023-10-31T07:45:03;7.10;;;5.63;;
20491;SDS011;10404;51.468;6.762;2023-10-31T07:47:29;8.15;;;5.75;;
20491;SDS011;10404;51.468;6.762;2023-10-31T07:49:55;7.70;;;6.15;;
20491;SDS011;10404;51.468;6.762;2023-10-31T07:52:20;7.55;;;6.30;;
20491;SDS011;10404;51.468;6.762;2023-10-31T07:54:46;8.13;;;6.45;;
20491;SDS011;10404;51.468;6.762;2023-10-31T07:57:11;7.78;;;6.05;;
20491;SDS011;10404;51.468;6.762;2023-10-31T07:59:37;8.02;;;6.80;;
20491;SDS011;10404;51.468;6.762;2023-10-31T08:02:02;7.25;;;5.70;;
20491;SDS011;10404;51.468;6.762;2023-10-31T08:04:28;8.52;;;6.50;;
20491;SDS011;10404;51.468;6.762;2023-10-31T08:06:55;8.48;;;5.95;;
20491;SDS011;10404;51.468;6.762;2023-10-31T08:09:20;8.05;;;6.28;;
20491;SDS011;10404;51.468;6.762;2023-10-31T08:11:46;8.90;;;6.75;;
20491;SDS011;10404;51.468;6.762;2023-10-31T08:14:11;7.70;;;6.43;;
20491;SDS011;10404;51.468;6.762;2023-10-31T08:16:37;7.28;;;6.03;;
20491;SDS011;10404;51.468;6.762;2023-10-31T08:19:03;8.95;;;7.63;;
20491;SDS011;10404;51.468;6.762;2023-10-31T08:21:29;9.32;;;6.07;;
20491;SDS011;10404;51.468;6.762;2023-10-31T08:24:00;8.63;;;6.68;;
20491;SDS011;10404;51.468;6.762;2023-10-31T08:26:29;9.05;;;6.45;;
20491;SDS011;10404;51.468;6.762;2023-10-31T08:28:57;10.25;;;7.57;;
20491;SDS011;10404;51.468;6.762;2023-10-31T08:31:22;9.32;;;7.00;;
20491;SDS011;10404;51.468;6.762;2023-10-31T08:33:48;9.55;;;7.55;;
20491;SDS011;10404;51.468;6.762;2023-10-31T08:36:14;10.45;;;7.60;;
20491;SDS011;10404;51.468;6.762;2023-10-31T08:38:39;9.27;;;8.25;;
20491;SDS011;10404;51.468;6.762;2023-10-31T08:41:05;8.15;;;6.50;;
20491;SDS011;10404;51.468;6.762;2023-10-31T08:43:31;10.00;;;7.13;;
20491;SDS011;10404;51.468;6.762;2023-10-31T08:45:56;9.60;;;6.82;;
20491;SDS011;10404;51.468;6.762;2023-10-31T08:48:22;9.85;;;7.15;;
20491;SDS011;10404;51.468;6.762;2023-10-31T08:50:47;9.13;;;7.07;;
20491;SDS011;10404;51.468;6.762;2023-10-31T08:53:13;8.07;;;6.78;;
20491;SDS011;10404;51.468;6.762;2023-10-31T08:55:39;8.90;;;6.78;;
20491;SDS011;10404;51.468;6.762;2023-10-31T08:58:08;8.63;;;6.78;;
20491;SDS011;10404;51.468;6.762;2023-10-31T09:00:35;8.32;;;7.18;;
20491;SDS011;10404;51.468;6.762;2023-10-31T09:03:01;8.35;;;6.30;;
20491;SDS011;10404;51.468;6.762;2023-10-31T09:05:26;9.27;;;6.35;;
20491;SDS011;10404;51.468;6.762;2023-10-31T09:07:52;7.47;;;6.55;;
20491;SDS011;10404;51.468;6.762;2023-10-31T09:10:18;8.93;;;6.15;;
20491;SDS011;10404;51.468;6.762;2023-10-31T09:12:43;9.13;;;7.40;;
20491;SDS011;10404;51.468;6.762;2023-10-31T09:15:09;8.00;;;5.88;;
20491;SDS011;10404;51.468;6.762;2023-10-31T09:17:35;7.70;;;6.90;;
20491;SDS011;10404;51.468;6.762;2023-10-31T09:20:00;6.47;;;5.50;;
20491;SDS011;10404;51.468;6.762;2023-10-31T09:22:26;7.18;;;5.60;;
20491;SDS011;10404;51.468;6.762;2023-10-31T09:24:52;7.38;;;5.80;;
20491;SDS011;10404;51.468;6.762;2023-10-31T09:27:17;8.68;;;6.25;;
20491;SDS011;10404;51.468;6.762;2023-10-31T09:29:43;6.93;;;6.15;;
20491;SDS011;10404;51.468;6.762;2023-10-31T09:32:09;7.65;;;5.53;;
20491;SDS011;10404;51.468;6.762;2023-10-31T09:34:34;6.95;;;5.75;;
20491;SDS011;10404;51.468;6.762;2023-10-31T09:37:00;6.25;;;5.22;;
20491;SDS011;10404;51.468;6.762;2023-10-31T09:39:25;7.15;;;5.22;;
20491;SDS011;10404;51.468;6.762;2023-10-31T09:41:52;6.85;;;5.53;;
20491;SDS011;10404;51.468;6.762;2023-10-31T09:44:18;6.78;;;5.20;;
20491;SDS011;10404;51.468;6.762;2023-10-31T09:46:45;6.55;;;5.68;;
20491;SDS011;10404;51.468;6.762;2023-10-31T09:49:10;6.95;;;5.10;;
20491;SDS011;10404;51.468;6.762;2023-10-31T09:51:37;6.22;;;5.63;;
20491;SDS011;10404;51.468;6.762;2023-10-31T09:54:03;6.10;;;4.43;;
20491;SDS011;10404;51.468;6.762;2023-10-31T09:56:31;8.70;;;5.35;;
20491;SDS011;10404;51.468;6.762;2023-10-31T09:58:59;6.18;;;4.75;;
20491;SDS011;10404;51.468;6.762;2023-10-31T10:01:25;5.65;;;4.50;;
20491;SDS011;10404;51.468;6.762;2023-10-31T10:03:51;5.45;;;4.70;;
20491;SDS011;10404;51.468;6.762;2023-10-31T10:06:17;6.22;;;4.65;;
20491;SDS011;10404;51.468;6.762;2023-10-31T10:08:46;7.63;;;5.95;;
20491;SDS011;10404;51.468;6.762;2023-10-31T10:11:11;7.30;;;5.65;;
20491;SDS011;10404;51.468;6.762;2023-10-31T10:13:37;7.65;;;5.20;;
20491;SDS011;10404;51.468;6.762;2023-10-31T10:16:03;6.30;;;5.32;;
20491;SDS011;10404;51.468;6.762;2023-10-31T10:18:33;7.72;;;5.05;;
20491;SDS011;10404;51.468;6.762;2023-10-31T10:21:05;7.25;;;5.13;;
20491;SDS011;10404;51.468;6.762;2023-10-31T10:23:32;6.75;;;4.65;;
20491;SDS011;10404;51.468;6.762;2023-10-31T10:25:59;7.75;;;5.38;;
20491;SDS011;10404;51.468;6.762;2023-10-31T10:28:27;7.53;;;4.93;;
20491;SDS011;10404;51.468;6.762;2023-10-31T10:30:54;6.18;;;5.15;;
20491;SDS011;10404;51.468;6.762;2023-10-31T10:33:20;6.85;;;5.13;;
20491;SDS011;10404;51.468;6.762;2023-10-31T10:35:46;7.32;;;5.35;;
20491;SDS011;10404;51.468;6.762;2023-10-31T10:38:16;6.88;;;4.97;;
20491;SDS011;10404;51.468;6.762;2023-10-31T10:40:43;7.85;;;6.10;;
20491;SDS011;10404;51.468;6.762;2023-10-31T10:43:12;7.68;;;4.90;;
20491;SDS011;10404;51.468;6.762;2023-10-31T10:45:44;8.77;;;5.93;;
20491;SDS011;10404;51.468;6.762;2023-10-31T10:48:13;6.82;;;4.57;;
20491;SDS011;10404;51.468;6.762;2023-10-31T10:50:42;6.15;;;5.30;;
20491;SDS011;10404;51.468;6.762;2023-10-31T10:55:45;8.77;;;5.40;;
20491;SDS011;10404;51.468;6.762;2023-10-31T10:58:25;7.43;;;4.90;;
20491;SDS011;10404;51.468;6.762;2023-10-31T11:01:10;7.20;;;4.68;;
20491;SDS011;10404;51.468;6.762;2023-10-31T11:03:36;6.65;;;5.40;;
20491;SDS011;10404;51.468;6.762;2023-10-31T11:06:03;7.15;;;4.70;;
20491;SDS011;10404;51.468;6.762;2023-10-31T11:08:30;6.30;;;4.63;;
20491;SDS011;10404;51.468;6.762;2023-10-31T11:10:58;6.03;;;4.60;;
20491;SDS011;10404;51.468;6.762;2023-10-31T11:13:24;7.18;;;5.28;;
20491;SDS011;10404;51.468;6.762;2023-10-31T11:15:51;5.97;;;4.85;;
20491;SDS011;10404;51.468;6.762;2023-10-31T11:18:20;5.40;;;4.45;;
20491;SDS011;10404;51.468;6.762;2023-10-31T11:20:46;6.32;;;5.18;;
20491;SDS011;10404;51.468;6.762;2023-10-31T11:23:12;5.90;;;4.20;;
20491;SDS011;10404;51.468;6.762;2023-10-31T11:25:44;6.00;;;4.90;;
20491;SDS011;10404;51.468;6.762;2023-10-31T11:28:10;7.70;;;4.35;;
20491;SDS011;10404;51.468;6.762;2023-10-31T11:30:38;6.20;;;5.05;;
20491;SDS011;10404;51.468;6.762;2023-10-31T11:33:04;5.95;;;3.85;;
20491;SDS011;10404;51.468;6.762;2023-10-31T11:35:31;6.25;;;4.47;;
20491;SDS011;10404;51.468;6.762;2023-10-31T11:38:02;5.22;;;4.05;;
20491;SDS011;10404;51.468;6.762;2023-10-31T11:40:31;5.30;;;3.92;;
20491;SDS011;10404;51.468;6.762;2023-10-31T11:42:58;5.78;;;4.13;;
20491;SDS011;10404;51.468;6.762;2023-10-31T11:45:28;6.88;;;4.90;;
20491;SDS011;10404;51.468;6.762;2023-10-31T11:48:02;6.50;;;3.65;;
20491;SDS011;10404;51.468;6.762;2023-10-31T11:50:30;5.00;;;4.03;;
20491;SDS011;10404;51.468;6.762;2023-10-31T11:53:00;6.47;;;3.95;;
20491;SDS011;10404;51.468;6.762;2023-10-31T11:55:31;7.82;;;3.75;;
20491;SDS011;10404;51.468;6.762;2023-10-31T11:57:59;5.03;;;3.95;;
20491;SDS011;10404;51.468;6.762;2023-10-31T12:00:36;5.38;;;4.85;;
20491;SDS011;10404;51.468;6.762;2023-10-31T12:03:02;4.50;;;3.35;;
20491;SDS011;10404;51.468;6.762;2023-10-31T12:05:28;5.95;;;3.83;;
20491;SDS011;10404;51.468;6.762;2023-10-31T12:07:54;4.65;;;3.85;;
20491;SDS011;10404;51.468;6.762;2023-10-31T12:10:24;5.50;;;3.83;;
20491;SDS011;10404;51.468;6.762;2023-10-31T12:12:51;5.88;;;5.30;;
20491;SDS011;10404;51.468;6.762;2023-10-31T12:15:18;5.85;;;3.75;;
20491;SDS011;10404;51.468;6.762;2023-10-31T12:17:43;4.70;;;3.85;;
20491;SDS011;10404;51.468;6.762;2023-10-31T12:20:09;5.30;;;3.22;;
20491;SDS011;10404;51.468;6.762;2023-10-31T12:22:35;6.22;;;4.22;;
20491;SDS011;10404;51.468;6.762;2023-10-31T12:25:04;5.80;;;3.95;;
20491;SDS011;10404;51.468;6.762;2023-10-31T12:27:49;3.97;;;3.47;;
20491;SDS011;10404;51.468;6.762;2023-10-31T12:30:19;3.47;;;3.17;;
20491;SDS011;10404;51.468;6.762;2023-10-31T12:32:53;4.93;;;4.18;;
20491;SDS011;10404;51.468;6.762;2023-10-31T12:35:22;4.10;;;3.15;;
20491;SDS011;10404;51.468;6.762;2023-10-31T12:37:50;5.18;;;3.85;;
20491;SDS011;10404;51.468;6.762;2023-10-31T12:40:20;4.63;;;3.25;;
20491;SDS011;10404;51.468;6.762;2023-10-31T12:42:47;4.85;;;4.25;;
20491;SDS011;10404;51.468;6.762;2023-10-31T12:45:14;4.43;;;3.00;;
20491;SDS011;10404;51.468;6.762;2023-10-31T12:47:42;4.80;;;4.32;;
20491;SDS011;10404;51.468;6.762;2023-10-31T12:50:08;5.80;;;3.00;;
20491;SDS011;10404;51.468;6.762;2023-10-31T12:52:49;3.92;;;3.50;;
20491;SDS011;10404;51.468;6.762;2023-10-31T12:55:16;6.20;;;3.10;;
20491;SDS011;10404;51.468;6.762;2023-10-31T12:57:43;3.75;;;3.40;;
20491;SDS011;10404;51.468;6.762;2023-10-31T13:00:10;4.18;;;2.83;;
20491;SDS011;10404;51.468;6.762;2023-10-31T13:02:38;3.97;;;3.42;;
20491;SDS011;10404;51.468;6.762;2023-10-31T13:05:14;4.15;;;2.78;;
20491;SDS011;10404;51.468;6.762;2023-10-31T13:07:49;4.00;;;2.92;;
20491;SDS011;10404;51.468;6.762;2023-10-31T13:10:17;4.85;;;2.63;;
20491;SDS011;10404;51.468;6.762;2023-10-31T13:12:47;4.70;;;3.42;;
20491;SDS011;10404;51.468;6.762;2023-10-31T13:17:39;3.65;;;3.00;;
20491;SDS011;10404;51.468;6.762;2023-10-31T13:20:08;3.10;;;2.50;;
20491;SDS011;10404;51.468;6.762;2023-10-31T13:22:35;5.78;;;2.65;;
20491;SDS011;10404;51.468;6.762;2023-10-31T13:25:02;4.50;;;2.17;;
20491;SDS011;10404;51.468;6.762;2023-10-31T13:27:32;4.68;;;2.30;;
20491;SDS011;10404;51.468;6.762;2023-10-31T13:30:02;5.57;;;2.78;;
20491;SDS011;10404;51.468;6.762;2023-10-31T13:32:28;3.90;;;2.33;;
20491;SDS011;10404;51.468;6.762;2023-10-31T13:34:54;5.22;;;2.60;;
20491;SDS011;10404;51.468;6.762;2023-10-31T13:37:19;4.15;;;2.72;;
20491;SDS011;10404;51.468;6.762;2023-10-31T13:39:45;4.75;;;2.90;;
20491;SDS011;10404;51.468;6.762;2023-10-31T13:42:11;4.70;;;2.47;;
20491;SDS011;10404;51.468;6.762;2023-10-31T13:44:37;3.70;;;3.28;;
20491;SDS011;10404;51.468;6.762;2023-10-31T13:47:02;4.13;;;2.38;;
20491;SDS011;10404;51.468;6.762;2023-10-31T13:49:28;4.00;;;2.53;;
20491;SDS011;10404;51.468;6.762;2023-10-31T13:51:54;3.30;;;2.20;;
20491;SDS011;10404;51.468;6.762;2023-10-31T13:54:19;4.70;;;2.50;;
20491;SDS011;10404;51.468;6.762;2023-10-31T13:56:46;4.45;;;2.90;;
20491;SDS011;10404;51.468;6.762;2023-10-31T13:59:12;2.17;;;1.98;;
20491;SDS011;10404;51.468;6.762;2023-10-31T14:01:37;3.40;;;2.65;;
20491;SDS011;10404;51.468;6.762;2023-10-31T14:04:03;3.45;;;1.90;;
20491;SDS011;10404;51.468;6.762;2023-10-31T14:06:29;4.15;;;1.95;;
20491;SDS011;10404;51.468;6.762;2023-10-31T14:08:57;2.85;;;2.42;;
20491;SDS011;10404;51.468;6.762;2023-10-31T14:11:24;2.55;;;2.30;;
20491;SDS011;10404;51.468;6.762;2023-10-31T14:13:49;2.78;;;2.53;;
20491;SDS011;10404;51.468;6.762;2023-10-31T14:16:15;4.00;;;2.25;;
20491;SDS011;10404;51.468;6.762;2023-10-31T14:18:41;4.10;;;2.53;;
20491;SDS011;10404;51.468;6.762;2023-10-31T14:21:07;3.55;;;2.20;;
20491;SDS011;10404;51.468;6.762;2023-10-31T14:23:33;1.95;;;1.70;;
20491;SDS011;10404;51.468;6.762;2023-10-31T14:25:59;2.58;;;1.90;;
20491;SDS011;10404;51.468;6.762;2023-10-31T14:28:25;4.25;;;2.17;;
20491;SDS011;10404;51.468;6.762;2023-10-31T14:30:51;3.00;;;2.72;;
20491;SDS011;10404;51.468;6.762;2023-10-31T14:33:19;2.83;;;1.80;;
20491;SDS011;10404;51.468;6.762;2023-10-31T14:35:45;2.45;;;2.05;;
20491;SDS011;10404;51.468;6.762;2023-10-31T14:38:10;2.75;;;1.73;;
20491;SDS011;10404;51.468;6.762;2023-10-31T14:40:36;3.28;;;2.20;;
20491;SDS011;10404;51.468;6.762;2023-10-31T14:43:01;2.40;;;1.88;;
20491;SDS011;10404;51.468;6.762;2023-10-31T14:45:27;3.17;;;2.75;;
20491;SDS011;10404;51.468;6.762;2023-10-31T14:47:52;2.70;;;2.17;;